Time;durP1;ratioP1;P1;durP2;ratioP2;P2;SDS_P1;SDS_P2;PMS_P1;PMS_P2;Temp;Humidity;BMP_temperature;BMP_pressure;BME280_temperature;BME280_humidity;BME280_pressure;Samples;Min_cycle;Max_cycle;Signal;HPM_P1;HPM_P2
2023/09/18 00:00:05;;;;;;;8.30;6.50;;;;;;;15.70;100.00;98065.03;6111922;19;20009;-75
2023/09/18 00:02:05;;;;;;;8.45;5.88;;;;;;;15.70;100.00;98053.09;6111810;19;20030;-75
2023/09/18 00:04:06;;;;;;;7.47;5.55;;;;;;;15.70;100.00;98053.09;6110228;19;20355;-75
2023/09/18 00:06:08;;;;;;;7.82;6.65;;;;;;;15.71;100.00;98057.47;6112109;19;20011;-75
2023/09/18 00:08:09;;;;;;;7.53;5.70;;;;;;;15.68;100.00;98042.38;6112694;19;20014;-74
2023/09/18 00:10:13;;;;;;;10.40;6.25;;;;;;;15.66;100.00;98047.59;6112275;19;20348;-74
2023/09/18 00:12:13;;;;;;;7.95;6.18;;;;;;;15.62;100.00;98051.63;6113303;19;20753;-74
2023/09/18 00:14:13;;;;;;;6.53;5.72;;;;;;;15.58;100.00;98054.47;6112272;19;20386;-75
2023/09/18 00:16:14;;;;;;;6.70;5.70;;;;;;;15.57;100.00;98054.88;6112251;19;20031;-74
2023/09/18 00:18:15;;;;;;;7.93;5.97;;;;;;;15.59;100.00;98052.44;6111314;19;20006;-75
2023/09/18 00:20:17;;;;;;;6.78;5.97;;;;;;;15.58;100.00;98048.09;6112594;19;20423;-74
2023/09/18 00:22:17;;;;;;;8.50;6.35;;;;;;;15.54;100.00;98042.56;6112573;19;19998;-74
2023/09/18 00:24:18;;;;;;;10.02;6.38;;;;;;;15.56;100.00;98047.72;6111621;19;20021;-74
2023/09/18 00:26:18;;;;;;;9.38;7.07;;;;;;;15.50;100.00;98044.63;6112196;19;20399;-74
2023/09/18 00:28:18;;;;;;;8.00;5.80;;;;;;;15.48;100.00;98033.09;6110104;19;20010;-74
2023/09/18 00:30:19;;;;;;;10.68;7.70;;;;;;;15.50;100.00;98029.91;6111859;19;20026;-74
2023/09/18 00:32:19;;;;;;;9.50;6.72;;;;;;;15.48;100.00;98030.31;6111838;19;20337;-74
2023/09/18 00:34:19;;;;;;;7.63;6.25;;;;;;;15.46;100.00;98029.94;6111306;19;20409;-74
2023/09/18 00:36:20;;;;;;;7.30;6.05;;;;;;;15.41;100.00;98020.06;6111659;19;20414;-74
2023/09/18 00:38:20;;;;;;;9.63;6.07;;;;;;;15.42;100.00;98020.84;6109769;19;20577;-74
2023/09/18 00:40:21;;;;;;;6.95;5.70;;;;;;;15.38;100.00;98009.72;6112995;19;20042;-74
2023/09/18 00:42:22;;;;;;;8.82;6.30;;;;;;;15.39;100.00;98002.16;6111487;19;20030;-74
2023/09/18 00:44:26;;;;;;;7.45;6.10;;;;;;;15.37;100.00;97999.81;6110543;19;20379;-74
2023/09/18 00:46:27;;;;;;;7.78;5.88;;;;;;;15.35;100.00;97998.66;6111304;19;20466;-74
2023/09/18 00:48:28;;;;;;;7.70;5.90;;;;;;;15.33;100.00;97987.94;6109539;19;20062;-74
2023/09/18 00:50:28;;;;;;;7.32;5.82;;;;;;;15.32;100.00;98000.28;6110965;19;20010;-74
2023/09/18 00:52:29;;;;;;;7.32;5.82;;;;;;;15.35;100.00;97987.50;6111166;19;20006;-74
2023/09/18 00:54:30;;;;;;;7.05;5.70;;;;;;;15.33;100.00;97981.56;6112704;19;20007;-74
2023/09/18 00:56:32;;;;;;;6.38;5.30;;;;;;;15.33;100.00;97979.56;6111999;19;20031;-74
2023/09/18 00:58:33;;;;;;;9.30;5.50;;;;;;;15.32;100.00;97983.56;6107570;19;20485;-74
2023/09/18 01:00:33;;;;;;;7.53;4.95;;;;;;;15.31;100.00;97970.06;6110917;19;20006;-74
2023/09/18 01:02:33;;;;;;;6.78;5.38;;;;;;;15.29;100.00;97962.09;6112446;19;20014;-75
2023/09/18 01:04:34;;;;;;;7.47;5.63;;;;;;;15.27;100.00;97964.53;6108212;19;20774;-74
2023/09/18 01:06:35;;;;;;;6.05;5.00;;;;;;;15.28;100.00;97960.53;6111856;19;20006;-74
2023/09/18 01:08:36;;;;;;;8.50;5.47;;;;;;;15.27;100.00;97963.75;6109310;19;20042;-74
2023/09/18 01:10:48;;;;;;;6.30;5.45;;;;;;;15.27;100.00;97961.75;6110381;19;20335;-74
2023/09/18 01:13:13;;;;;;;9.68;6.07;;;;;;;15.25;100.00;97958.59;6112050;19;20007;-74
2023/09/18 01:15:16;;;;;;;5.85;5.25;;;;;;;15.28;100.00;97954.16;6110953;19;20365;-74
2023/09/18 01:17:17;;;;;;;8.70;5.40;;;;;;;15.28;100.00;97954.94;6111518;19;20037;-74
2023/09/18 01:19:33;;;;;;;6.18;5.07;;;;;;;15.28;100.00;97949.38;6108247;19;20356;-74
2023/09/18 01:21:34;;;;;;;7.30;5.65;;;;;;;15.33;100.00;97953.69;6111025;19;20014;-74
2023/09/18 01:23:34;;;;;;;5.85;4.88;;;;;;;15.32;100.00;97949.34;6109472;19;20015;-74
2023/09/18 01:25:34;;;;;;;6.18;5.30;;;;;;;15.33;100.00;97948.13;6111114;19;20010;-74
2023/09/18 01:27:35;;;;;;;7.18;5.15;;;;;;;15.31;100.00;97945.75;6110683;19;20014;-74
2023/09/18 01:29:35;;;;;;;7.70;5.25;;;;;;;15.31;100.00;97937.41;6107186;19;20086;-74
2023/09/18 01:31:35;;;;;;;5.47;4.63;;;;;;;15.32;100.00;97946.56;6111014;19;20014;-74
2023/09/18 01:33:37;;;;;;;8.13;5.95;;;;;;;15.31;100.00;97950.56;6110471;19;20509;-74
2023/09/18 01:35:38;;;;;;;5.60;5.03;;;;;;;15.30;100.00;97944.16;6111103;19;19998;-74
2023/09/18 01:37:39;;;;;;;6.65;5.18;;;;;;;15.29;100.00;97942.59;6109678;19;20330;-74
2023/09/18 01:39:41;;;;;;;5.75;4.80;;;;;;;15.29;100.00;97934.22;6107117;19;20331;-74
2023/09/18 01:41:43;;;;;;;8.40;5.30;;;;;;;15.29;100.00;97936.22;6110688;19;20029;-74
2023/09/18 01:43:43;;;;;;;6.13;4.78;;;;;;;15.27;100.00;97931.09;6110187;19;20003;-74
2023/09/18 01:45:43;;;;;;;5.35;4.45;;;;;;;15.28;100.00;97924.28;6110278;19;20045;-74
2023/09/18 01:47:45;;;;;;;5.25;4.50;;;;;;;15.28;100.00;97920.72;6110020;19;20048;-74
2023/09/18 01:49:46;;;;;;;7.75;5.55;;;;;;;15.27;100.00;97921.94;6099660;19;20324;-74
2023/09/18 01:51:47;;;;;;;6.82;4.75;;;;;;;15.25;100.00;97916.78;6108488;19;20022;-74
2023/09/18 01:53:48;;;;;;;8.17;5.13;;;;;;;15.25;100.00;97921.56;6110237;19;20003;-74
2023/09/18 01:55:48;;;;;;;6.32;4.82;;;;;;;15.26;100.00;97925.94;6106934;19;20590;-74
2023/09/18 01:57:48;;;;;;;5.68;5.10;;;;;;;15.26;100.00;97926.72;6106431;19;20066;-74
2023/09/18 01:59:49;;;;;;;6.53;5.18;;;;;;;15.26;100.00;97923.94;6109147;19;20031;-74
2023/09/18 02:01:51;;;;;;;7.25;5.57;;;;;;;15.24;100.00;97922.78;6109641;19;20002;-74
2023/09/18 02:03:51;;;;;;;5.18;4.63;;;;;;;15.25;100.00;97925.16;6109174;19;20011;-74
2023/09/18 02:05:51;;;;;;;5.57;4.90;;;;;;;15.26;100.00;97928.72;6110007;19;20023;-74
2023/09/18 02:07:52;;;;;;;5.63;5.03;;;;;;;15.25;100.00;97921.56;6107826;19;20007;-74
2023/09/18 02:09:52;;;;;;;6.40;5.22;;;;;;;15.26;100.00;97932.31;6105820;19;20026;-74
2023/09/18 02:11:53;;;;;;;7.32;5.40;;;;;;;15.27;100.00;97919.16;6107819;19;20009;-74
2023/09/18 02:13:53;;;;;;;6.18;5.55;;;;;;;15.28;100.00;97923.50;6109204;19;20044;-74
2023/09/18 02:15:54;;;;;;;5.85;5.22;;;;;;;15.26;100.00;97918.38;6110347;19;20317;-74
2023/09/18 02:17:54;;;;;;;6.95;5.35;;;;;;;15.25;100.00;97919.56;6108999;19;20014;-74
2023/09/18 02:19:54;;;;;;;6.43;5.13;;;;;;;15.24;100.00;97906.84;6102979;19;20006;-74
2023/09/18 02:21:57;;;;;;;6.68;5.43;;;;;;;15.23;100.00;97905.28;6108753;19;20393;-74
2023/09/18 02:23:58;;;;;;;5.95;5.30;;;;;;;15.22;100.00;97900.13;6107629;19;20006;-74
2023/09/18 02:25:58;;;;;;;6.60;4.88;;;;;;;15.19;100.00;97893.41;6109644;19;20006;-74
2023/09/18 02:27:59;;;;;;;7.55;5.13;;;;;;;15.19;100.00;97901.75;6106491;19;20423;-74
2023/09/18 02:29:59;;;;;;;6.35;5.38;;;;;;;15.16;100.00;97914.53;6108929;19;20007;-74
2023/09/18 02:31:59;;;;;;;7.22;4.70;;;;;;;15.11;100.00;97903.88;6109819;19;20031;-74
2023/09/18 02:34:00;;;;;;;5.97;5.20;;;;;;;15.07;100.00;97903.16;6108405;19;20030;-74
2023/09/18 02:36:00;;;;;;;8.20;5.90;;;;;;;15.05;100.00;97896.41;6108831;19;20002;-74
2023/09/18 02:38:02;;;;;;;5.63;5.03;;;;;;;15.03;100.00;97907.19;6107174;19;20381;-74
2023/09/18 02:40:05;;;;;;;5.97;5.15;;;;;;;14.99;100.00;97898.91;6107751;19;20015;-74
2023/09/18 02:42:05;;;;;;;;;;;;;;;14.96;100.00;97904.50;6108944;19;20086;-74
2023/09/18 02:44:05;;;;;;;8.32;5.07;;;;;;;14.94;100.00;97896.56;6106312;19;20336;-74
2023/09/18 02:46:06;;;;;;;7.72;4.95;;;;;;;14.89;100.00;97891.47;6105881;19;20477;-74
2023/09/18 02:48:06;;;;;;;11.73;5.45;;;;;;;14.86;100.00;97895.09;6106656;19;20011;-74
2023/09/18 02:50:07;;;;;;;8.30;5.45;;;;;;;14.85;100.00;97891.53;6106497;19;20082;-74
2023/09/18 02:52:07;;;;;;;7.10;5.88;;;;;;;14.85;100.00;97883.19;6111241;19;20006;-74
2023/09/18 02:54:08;;;;;;;8.43;5.90;;;;;;;14.86;100.00;97889.53;6109278;19;20010;-74
2023/09/18 02:56:08;;;;;;;6.85;5.63;;;;;;;14.90;100.00;97876.34;6110693;19;20034;-74
2023/09/18 02:58:10;;;;;;;7.57;5.95;;;;;;;14.93;100.00;97878.28;6108982;19;20377;-74
2023/09/18 03:00:10;;;;;;;6.10;5.28;;;;;;;14.92;100.00;97878.72;6108677;19;20006;-74
2023/09/18 03:02:11;;;;;;;7.15;6.15;;;;;;;14.89;100.00;97864.44;6110296;19;20070;-74
2023/09/18 03:04:11;;;;;;;9.13;5.43;;;;;;;14.89;100.00;97861.66;6109975;19;20003;-74
2023/09/18 03:06:13;;;;;;;9.23;5.90;;;;;;;14.88;100.00;97859.25;6110345;19;20019;-74
2023/09/18 03:08:15;;;;;;;6.60;5.68;;;;;;;14.86;100.00;97859.69;6109212;19;20019;-74
2023/09/18 03:10:18;;;;;;;6.55;5.22;;;;;;;14.86;100.00;97867.25;6108227;19;20035;-74
2023/09/18 03:12:18;;;;;;;5.28;4.78;;;;;;;14.88;100.00;97864.81;6109753;19;20003;-74
2023/09/18 03:14:19;;;;;;;7.63;5.70;;;;;;;14.89;100.00;97860.84;6110587;19;20477;-74
2023/09/18 03:16:19;;;;;;;6.00;5.20;;;;;;;14.91;100.00;97861.22;6109583;19;20785;-74
2023/09/18 03:18:19;;;;;;;7.63;5.40;;;;;;;14.91;100.00;97855.66;6106617;19;20097;-74
2023/09/18 03:20:23;;;;;;;6.07;5.47;;;;;;;14.91;100.00;97863.22;6110647;19;20035;-74
2023/09/18 03:22:23;;;;;;;7.40;5.38;;;;;;;14.91;100.00;97854.88;6109909;19;20009;-74
2023/09/18 03:24:24;;;;;;;5.95;4.53;;;;;;;14.88;100.00;97848.91;6108751;19;20497;-74
2023/09/18 03:26:24;;;;;;;5.82;5.22;;;;;;;14.86;100.00;97836.63;6109979;19;20018;-74
2023/09/18 03:28:25;;;;;;;6.22;4.65;;;;;;;14.84;100.00;97836.25;6106191;19;20010;-74
2023/09/18 03:30:26;;;;;;;5.63;4.75;;;;;;;14.83;100.00;97831.91;6109400;19;20507;-74
2023/09/18 03:32:26;;;;;;;7.07;4.80;;;;;;;14.82;100.00;97838.69;6109779;19;20014;-74
2023/09/18 03:34:26;;;;;;;6.07;5.47;;;;;;;14.82;100.00;97833.91;6109671;19;20033;-74
2023/09/18 03:36:27;;;;;;;8.75;6.00;;;;;;;14.81;100.00;97823.16;6109643;19;20078;-74
2023/09/18 03:38:29;;;;;;;7.45;5.57;;;;;;;14.76;100.00;97821.66;6106662;19;20589;-74
2023/09/18 03:40:30;;;;;;;8.23;6.40;;;;;;;14.72;100.00;97811.78;6108464;19;20007;-74
2023/09/18 03:42:30;;;;;;;8.45;5.43;;;;;;;14.70;100.00;97817.78;6110035;19;20017;-74
2023/09/18 03:44:32;;;;;;;6.85;5.43;;;;;;;14.66;100.00;97807.91;6105227;19;20091;-74
2023/09/18 03:46:32;;;;;;;8.30;5.90;;;;;;;14.63;100.00;97809.53;6108458;19;20006;-74
2023/09/18 03:48:37;;;;;;;6.15;5.40;;;;;;;14.61;100.00;97804.38;6106157;19;20517;-74
2023/09/18 03:50:38;;;;;;;7.22;5.75;;;;;;;14.58;100.00;97805.22;6109312;19;20081;-74
2023/09/18 03:52:39;;;;;;;6.22;5.57;;;;;;;14.58;100.00;97810.00;6112696;19;20023;-74
2023/09/18 03:54:40;;;;;;;6.13;4.93;;;;;;;14.57;100.00;97806.44;6111913;19;20011;-74
2023/09/18 03:56:40;;;;;;;6.18;5.03;;;;;;;14.55;100.00;97803.28;6111895;19;20032;-74
2023/09/18 03:58:40;;;;;;;6.47;5.28;;;;;;;14.57;100.00;97809.22;6110778;19;20027;-74
2023/09/18 04:00:41;;;;;;;7.63;6.07;;;;;;;14.59;100.00;97795.66;6110848;19;20399;-74
2023/09/18 04:02:42;;;;;;;6.90;5.68;;;;;;;14.59;100.00;97795.66;6108646;19;20467;-74
2023/09/18 04:04:42;;;;;;;7.20;5.65;;;;;;;14.57;100.00;97791.75;6112316;19;20247;-74
2023/09/18 04:06:43;;;;;;;9.70;5.50;;;;;;;14.59;100.00;97787.31;6110784;19;20006;-74
2023/09/18 04:08:44;;;;;;;5.65;4.90;;;;;;;14.59;100.00;97778.97;6110620;19;20475;-74
2023/09/18 04:10:45;;;;;;;6.82;5.57;;;;;;;14.60;100.00;97783.31;6112461;19;20541;-74
2023/09/18 04:12:46;;;;;;;6.78;5.13;;;;;;;14.58;100.00;97779.41;6110751;19;20537;-74
2023/09/18 04:14:46;;;;;;;4.85;4.25;;;;;;;14.55;100.00;97778.22;6111863;19;20078;-74
2023/09/18 04:16:46;;;;;;;8.93;6.53;;;;;;;14.56;100.00;97773.44;6110507;19;20006;-74
2023/09/18 04:18:47;;;;;;;6.38;5.18;;;;;;;14.54;100.00;97762.72;6109325;19;20090;-74
2023/09/18 04:20:47;;;;;;;7.03;5.53;;;;;;;14.56;100.00;97773.44;6111423;19;20006;-74
2023/09/18 04:22:53;;;;;;;7.38;4.85;;;;;;;14.61;100.00;97784.09;6111099;19;20017;-74
2023/09/18 04:24:53;;;;;;;6.82;5.35;;;;;;;14.62;100.00;97782.91;6111221;19;20082;-74
2023/09/18 04:26:53;;;;;;;6.25;4.93;;;;;;;14.62;100.00;97777.31;6110173;19;19998;-74
2023/09/18 04:28:53;;;;;;;7.32;5.00;;;;;;;14.61;100.00;97792.47;6109611;19;20331;-74
2023/09/18 04:30:54;;;;;;;7.15;4.70;;;;;;;14.59;100.00;97778.97;6110867;19;20456;-74
2023/09/18 04:32:54;;;;;;;7.53;5.15;;;;;;;14.62;100.00;97774.53;6110553;19;20397;-74
2023/09/18 04:34:55;;;;;;;7.00;5.47;;;;;;;14.55;100.00;97764.31;6111764;19;20018;-74
2023/09/18 04:36:55;;;;;;;7.53;6.18;;;;;;;14.52;100.00;97764.38;6110327;19;20545;-74
2023/09/18 04:38:55;;;;;;;7.72;5.95;;;;;;;14.51;100.00;97769.16;6109981;19;20370;-74
2023/09/18 04:41:02;;;;;;;8.73;5.82;;;;;;;14.50;100.00;97762.00;6111048;19;19999;-74
2023/09/18 04:43:04;;;;;;;9.68;5.78;;;;;;;14.50;100.00;97764.78;6111088;19;20053;-74
2023/09/18 04:45:05;;;;;;;6.70;5.65;;;;;;;14.52;100.00;97767.16;6109920;19;20007;-74
2023/09/18 04:47:06;;;;;;;9.18;5.78;;;;;;;14.53;100.00;97768.72;6111840;19;20517;-74
2023/09/18 04:49:06;;;;;;;9.70;6.40;;;;;;;14.54;100.00;97776.66;6109173;19;20006;-74
2023/09/18 04:51:07;;;;;;;7.78;6.45;;;;;;;14.55;100.00;97792.13;6110998;19;20002;-74
2023/09/18 04:53:08;;;;;;;8.75;6.72;;;;;;;14.57;100.00;97812.00;6111636;19;20002;-74
2023/09/18 04:55:10;;;;;;;6.80;6.10;;;;;;;14.63;100.00;97809.53;6110496;19;20094;-74
2023/09/18 04:57:10;;;;;;;9.23;6.33;;;;;;;14.68;100.00;97825.75;6111826;19;20039;-74
2023/09/18 04:59:11;;;;;;;11.57;5.75;;;;;;;14.72;100.00;97811.78;6109147;19;20003;-74
2023/09/18 05:01:11;;;;;;;7.15;5.70;;;;;;;14.75;100.00;97799.81;6110686;19;20006;-74
2023/09/18 05:03:12;;;;;;;7.78;6.30;;;;;;;14.81;100.00;97796.13;6109568;19;20006;-74
2023/09/18 05:05:13;;;;;;;8.48;6.10;;;;;;;14.88;100.00;97779.28;6108138;19;20029;-74
2023/09/18 05:07:14;;;;;;;11.20;6.68;;;;;;;14.93;100.00;97794.72;6110674;19;20006;-74
2023/09/18 05:09:14;;;;;;;9.35;6.47;;;;;;;14.92;100.00;97776.44;6110231;19;20010;-74
2023/09/18 05:11:16;;;;;;;10.63;6.20;;;;;;;14.93;100.00;97775.22;6111143;19;20006;-74
2023/09/18 05:13:16;;;;;;;9.88;6.95;;;;;;;14.93;100.00;97775.22;6107350;19;20454;-74
2023/09/18 05:15:17;;;;;;;10.07;6.68;;;;;;;14.96;100.00;97752.09;6108640;19;20003;-74
2023/09/18 05:17:18;;;;;;;10.82;5.95;;;;;;;15.01;100.00;97745.25;6111798;19;20474;-74
2023/09/18 05:19:18;;;;;;;9.40;6.18;;;;;;;15.03;100.00;97745.63;6109429;19;20082;-74
2023/09/18 05:21:24;;;;;;;16.90;6.72;;;;;;;15.07;100.00;97747.13;6107247;19;20047;-74
2023/09/18 05:23:24;;;;;;;10.93;6.22;;;;;;;15.12;100.00;97738.28;6108599;19;20013;-74
2023/09/18 05:25:27;;;;;;;7.35;5.90;;;;;;;15.17;100.00;97721.06;6110197;19;20078;-74
2023/09/18 05:27:27;;;;;;;10.13;5.40;;;;;;;15.27;100.00;97721.28;6110958;19;20006;-74
2023/09/18 05:29:28;;;;;;;8.63;5.65;;;;;;;15.36;100.00;97711.16;6109827;19;20017;-74
2023/09/18 05:31:28;;;;;;;9.90;5.80;;;;;;;15.49;100.00;97694.56;6109825;19;20015;-74
2023/09/18 05:33:29;;;;;;;12.20;5.45;;;;;;;15.67;100.00;97706.16;6110631;19;20006;-74
2023/09/18 05:35:29;;;;;;;6.25;5.18;;;;;;;15.77;100.00;97717.53;6108512;19;20006;-74
2023/09/18 05:37:29;;;;;;;6.70;4.80;;;;;;;15.87;100.00;97720.06;6110527;19;20038;-74
2023/09/18 05:39:30;;;;;;;8.98;5.15;;;;;;;15.97;100.00;97712.69;6107061;19;20055;-74
2023/09/18 05:41:31;;;;;;;6.85;4.80;;;;;;;16.08;100.00;97720.84;6110377;19;20021;-74
2023/09/18 05:43:31;;;;;;;6.65;5.28;;;;;;;16.14;100.00;97719.91;6110128;19;20003;-74
2023/09/18 05:45:32;;;;;;;6.18;4.93;;;;;;;16.22;100.00;97703.78;6108815;19;20033;-74
2023/09/18 05:47:33;;;;;;;5.80;4.55;;;;;;;16.26;100.00;97693.28;6108433;19;20432;-74
2023/09/18 05:49:34;;;;;;;5.72;4.63;;;;;;;16.32;100.00;97701.94;6108583;19;20021;-74
2023/09/18 05:51:35;;;;;;;13.50;5.00;;;;;;;16.36;100.00;97702.63;6109556;19;20013;-74
2023/09/18 05:53:37;;;;;;;7.72;5.45;;;;;;;16.38;100.00;97695.38;6109455;19;20014;-74
2023/09/18 05:55:38;;;;;;;;;;;;;;;16.45;100.00;97705.59;6106713;19;20017;-74
2023/09/18 05:57:38;;;;;;;7.30;5.22;;;;;;;16.47;100.00;97697.59;6105309;19;20316;-74
2023/09/18 05:59:40;;;;;;;8.07;5.47;;;;;;;16.47;100.00;97694.81;6107262;19;20066;-74
2023/09/18 06:01:40;;;;;;;6.07;4.17;;;;;;;16.47;100.00;97697.59;6110141;19;20504;-74
2023/09/18 06:03:41;;;;;;;7.13;4.47;;;;;;;16.48;100.00;97690.78;6108522;19;20006;-74
2023/09/18 06:05:41;;;;;;;6.65;4.93;;;;;;;16.48;100.00;97694.34;6106888;19;20010;-74
2023/09/18 06:07:41;;;;;;;8.48;5.30;;;;;;;16.47;100.00;97683.63;6109677;19;20726;-74
2023/09/18 06:09:42;;;;;;;8.90;5.25;;;;;;;16.48;100.00;97680.41;6106494;19;20462;-74
2023/09/18 06:11:42;;;;;;;6.03;5.00;;;;;;;16.48;100.00;97679.63;6107326;19;20009;-74
2023/09/18 06:13:43;;;;;;;6.80;5.10;;;;;;;16.47;100.00;97692.78;6109199;19;20509;-74
2023/09/18 06:15:43;;;;;;;5.65;4.85;;;;;;;16.48;100.00;97677.59;6107428;19;20458;-74
2023/09/18 06:17:43;;;;;;;6.53;4.57;;;;;;;16.48;100.00;97682.41;6108259;19;20361;-74
2023/09/18 06:19:47;;;;;;;7.03;4.88;;;;;;;16.48;100.00;97679.63;6106812;19;20014;-74
2023/09/18 06:21:48;;;;;;;9.77;5.05;;;;;;;16.47;100.00;97678.84;6106444;19;20200;-74
2023/09/18 06:23:48;;;;;;;7.15;4.32;;;;;;;16.52;100.00;97671.91;6108141;19;20008;-74
2023/09/18 06:25:55;;;;;;;6.93;4.78;;;;;;;16.51;100.00;97675.94;6107141;19;20022;-74
2023/09/18 06:27:55;;;;;;;7.53;4.50;;;;;;;16.53;100.00;97687.44;6106882;19;20003;-74
2023/09/18 06:29:55;;;;;;;5.47;4.35;;;;;;;16.54;100.00;97686.22;6106515;19;20019;-74
2023/09/18 06:31:56;;;;;;;6.18;4.32;;;;;;;16.57;100.00;97683.34;6107404;19;20006;-74
2023/09/18 06:33:56;;;;;;;7.28;4.85;;;;;;;16.62;100.00;97696.00;6107714;19;20347;-74
2023/09/18 06:35:57;;;;;;;6.97;5.18;;;;;;;16.72;100.00;97688.63;6106968;19;20017;-74
2023/09/18 06:37:58;;;;;;;7.85;4.68;;;;;;;16.73;100.00;97684.59;6109511;19;20014;-74
2023/09/18 06:39:59;;;;;;;7.55;4.97;;;;;;;16.80;100.00;97684.41;6104937;19;20344;-74
2023/09/18 06:41:59;;;;;;;11.10;5.28;;;;;;;16.85;100.00;97676.28;6108079;19;20021;-74
2023/09/18 06:44:02;;;;;;;12.80;6.22;;;;;;;16.88;100.00;97688.59;6108372;19;20009;-74
2023/09/18 06:46:03;;;;;;;8.02;5.45;;;;;;;16.91;100.00;97693.28;6107373;19;20027;-74
2023/09/18 06:48:04;;;;;;;9.95;5.85;;;;;;;16.95;100.00;97687.59;6106502;19;20011;-74
2023/09/18 06:50:05;;;;;;;8.38;5.60;;;;;;;16.99;100.00;97683.50;6098422;19;20033;-74
2023/09/18 06:52:06;;;;;;;11.32;5.60;;;;;;;16.98;100.00;97679.13;6107576;19;20297;-74
2023/09/18 06:54:06;;;;;;;7.43;4.82;;;;;;;17.01;100.00;97692.22;6107719;19;20018;-74
2023/09/18 06:56:09;;;;;;;15.10;6.40;;;;;;;17.01;100.00;97697.03;6106897;19;20082;-74
2023/09/18 06:58:09;;;;;;;;;;;;;;;17.07;100.00;97703.66;6105704;19;20093;-74
2023/09/18 07:00:10;;;;;;;11.30;5.63;;;;;;;17.08;100.00;97694.03;6106005;19;19955;-73
2023/09/18 07:02:10;;;;;;;10.35;5.43;;;;;;;17.08;100.00;97685.66;6105264;19;20074;-74
2023/09/18 07:04:10;;;;;;;7.75;5.28;;;;;;;17.08;100.00;97666.88;6104557;19;20074;-74
2023/09/18 07:06:11;;;;;;;15.20;6.03;;;;;;;17.12;100.00;97661.97;6104117;19;20011;-74
2023/09/18 07:08:12;;;;;;;10.30;5.63;;;;;;;17.18;100.00;97642.66;6108195;19;20040;-74
2023/09/18 07:10:13;;;;;;;14.13;4.95;;;;;;;17.27;100.00;97650.41;6105793;19;20023;-74
2023/09/18 07:12:13;;;;;;;7.15;4.93;;;;;;;17.36;100.00;97642.91;6108356;19;20103;-74
2023/09/18 07:14:13;;;;;;;8.25;4.63;;;;;;;17.42;100.00;97641.16;6108613;19;20022;-74
2023/09/18 07:16:14;;;;;;;11.18;5.90;;;;;;;17.44;100.00;97643.50;6104907;19;20010;-74
2023/09/18 07:18:14;;;;;;;15.27;4.45;;;;;;;17.45;100.00;97653.47;6105953;19;20002;-74
2023/09/18 07:20:15;;;;;;;10.55;4.93;;;;;;;17.49;100.00;97667.34;6103723;19;20010;-73
2023/09/18 07:22:15;;;;;;;5.88;4.18;;;;;;;17.51;100.00;97664.88;6108200;19;20026;-74
2023/09/18 07:24:20;;;;;;;11.57;5.20;;;;;;;17.54;100.00;97666.78;6106337;19;19998;-74
2023/09/18 07:26:20;;;;;;;8.30;4.30;;;;;;;17.62;100.00;97674.53;6106289;19;20006;-74
2023/09/18 07:28:21;;;;;;;6.20;4.32;;;;;;;17.74;100.00;97667.44;6101610;19;20823;-74
2023/09/18 07:30:21;;;;;;;11.25;4.28;;;;;;;17.76;100.00;97662.16;6100326;19;20030;-73
2023/09/18 07:32:23;;;;;;;8.82;4.68;;;;;;;17.78;100.00;97672.91;6105396;19;20007;-74
2023/09/18 07:34:23;;;;;;;9.88;4.60;;;;;;;17.78;100.00;97672.91;6106244;19;20126;-74
2023/09/18 07:36:23;;;;;;;9.40;4.28;;;;;;;17.80;100.00;97671.25;6103867;19;20533;-74
2023/09/18 07:38:24;;;;;;;12.32;4.68;;;;;;;17.82;100.00;97659.59;6109258;19;20017;-74
2023/09/18 07:40:25;;;;;;;10.27;5.75;;;;;;;17.86;100.00;97665.88;6111332;19;20022;-74
2023/09/18 07:42:26;;;;;;;8.55;4.80;;;;;;;17.92;100.00;97650.88;6108927;19;20336;-74
2023/09/18 07:44:26;;;;;;;8.07;4.53;;;;;;;17.95;100.00;97640.78;6111389;19;20059;-74
2023/09/18 07:46:26;;;;;;;9.30;4.80;;;;;;;18.09;100.00;97659.94;6105239;19;20488;-74
2023/09/18 07:48:27;;;;;;;6.82;4.32;;;;;;;18.18;100.00;97684.47;6107249;19;20462;-74
2023/09/18 07:50:28;;;;;;;9.55;3.65;;;;;;;18.19;100.00;97691.63;6107193;19;20336;-74
2023/09/18 07:52:30;;;;;;;5.78;4.18;;;;;;;18.27;100.00;97695.78;6103857;19;20039;-74
2023/09/18 07:54:30;;;;;;;8.15;4.32;;;;;;;18.34;100.00;97691.97;6105962;19;20447;-74
2023/09/18 07:56:34;;;;;;;11.80;4.95;;;;;;;18.35;100.00;97694.31;6099818;19;20017;-74
2023/09/18 07:58:38;;;;;;;9.93;4.65;;;;;;;18.41;100.00;97703.72;6100939;19;20574;-74
2023/09/18 08:00:39;;;;;;;8.68;4.30;;;;;;;18.41;100.00;97695.31;6101938;19;20458;-74
2023/09/18 08:02:40;;;;;;;12.50;4.30;;;;;;;18.46;100.00;97691.97;6101382;19;20014;-74
2023/09/18 08:04:42;;;;;;;10.38;4.13;;;;;;;18.51;100.00;97702.59;6105962;19;20058;-74
2023/09/18 08:06:42;;;;;;;8.82;3.60;;;;;;;18.61;100.00;97697.84;6108460;19;20002;-74
2023/09/18 08:08:43;;;;;;;7.88;4.18;;;;;;;18.70;100.00;97698.00;6106502;19;19998;-74
2023/09/18 08:10:43;;;;;;;7.65;3.70;;;;;;;18.75;100.00;97697.44;6108226;19;20007;-74
2023/09/18 08:12:43;;;;;;;9.77;3.45;;;;;;;18.82;100.00;97702.00;6104387;19;20034;-74
2023/09/18 08:14:44;;;;;;;9.00;3.60;;;;;;;18.92;100.00;97709.25;6107133;19;20011;-74
2023/09/18 08:16:44;;;;;;;8.55;3.28;;;;;;;18.97;100.00;97705.91;6106735;19;19998;-74
2023/09/18 08:18:44;;;;;;;9.40;3.90;;;;;;;19.09;100.00;97704.28;6105417;19;20086;-74
2023/09/18 08:20:45;;;;;;;9.57;3.13;;;;;;;19.49;100.00;97701.66;6105504;19;20006;-73
2023/09/18 08:22:47;;;;;;;7.35;3.35;;;;;;;19.66;100.00;97715.50;6107020;19;20489;-73
2023/09/18 08:24:48;;;;;;;7.88;3.70;;;;;;;19.83;100.00;97730.91;6106463;19;20006;-74
2023/09/18 08:26:49;;;;;;;8.23;3.63;;;;;;;20.02;100.00;97734.59;6106495;19;20003;-74
2023/09/18 08:28:49;;;;;;;10.15;4.88;;;;;;;20.20;100.00;97743.13;6104278;19;20019;-74
2023/09/18 08:30:50;;;;;;;8.13;3.55;;;;;;;20.30;100.00;97738.34;6107144;19;20003;-74
2023/09/18 08:32:50;;;;;;;9.93;3.83;;;;;;;20.43;100.00;97739.81;6107019;19;20394;-74
2023/09/18 08:34:50;;;;;;;7.63;3.05;;;;;;;20.50;100.00;97735.94;6106934;19;20006;-73
2023/09/18 08:36:51;;;;;;;7.03;3.45;;;;;;;20.58;100.00;97756.13;6106342;19;20496;-74
2023/09/18 08:38:51;;;;;;;9.13;3.83;;;;;;;20.60;100.00;97745.97;6104284;19;20002;-74
2023/09/18 08:40:54;;;;;;;11.18;3.53;;;;;;;20.61;100.00;97761.59;6107551;19;20011;-74
2023/09/18 08:42:56;;;;;;;10.30;4.13;;;;;;;20.65;100.00;97759.41;6106792;19;20006;-74
2023/09/18 08:44:58;;;;;;;7.80;3.67;;;;;;;20.66;100.00;97746.94;6106189;19;20062;-74
2023/09/18 08:46:59;;;;;;;11.77;3.63;;;;;;;20.75;100.00;97763.81;6106294;19;20006;-74
2023/09/18 08:49:00;;;;;;;6.75;3.22;;;;;;;20.78;100.00;97755.72;6104121;19;20010;-74
2023/09/18 08:51:05;;;;;;;10.98;3.47;;;;;;;20.80;100.00;97753.22;6105340;19;20492;-74
2023/09/18 08:53:06;;;;;;;7.30;3.35;;;;;;;20.90;100.00;97763.25;6110664;19;20010;-74
2023/09/18 08:55:07;;;;;;;7.88;3.22;;;;;;;20.92;100.00;97755.91;6106289;19;20003;-74
2023/09/18 08:57:07;;;;;;;11.52;3.17;;;;;;;20.95;100.00;97755.00;6104442;19;20003;-74
2023/09/18 08:59:08;;;;;;;6.47;2.83;;;;;;;20.96;100.00;97764.97;6102046;19;20062;-74
2023/09/18 09:01:09;;;;;;;9.43;2.97;;;;;;;21.01;100.00;97750.28;6107904;19;20019;-74
2023/09/18 09:03:10;;;;;;;8.30;3.30;;;;;;;21.01;100.00;97753.09;6108135;19;20358;-74
2023/09/18 09:05:11;;;;;;;11.05;3.45;;;;;;;21.04;100.00;97760.63;6109919;19;20263;-74
2023/09/18 09:07:11;;;;;;;7.97;3.45;;;;;;;21.04;100.00;97745.78;6109976;19;20003;-74
2023/09/18 09:09:13;;;;;;;9.55;3.20;;;;;;;21.06;100.00;97748.91;6108590;19;20030;-74
2023/09/18 09:11:13;;;;;;;6.80;3.03;;;;;;;21.04;100.00;97752.19;6109185;19;20030;-74
2023/09/18 09:13:14;;;;;;;6.57;3.15;;;;;;;21.02;100.00;97754.69;6109690;19;20774;-74
2023/09/18 09:15:15;;;;;;;10.93;3.58;;;;;;;20.96;100.00;97758.59;6105780;19;20124;-74
2023/09/18 09:17:18;;;;;;;8.77;3.25;;;;;;;20.95;100.00;97752.19;6109325;19;20367;-74
2023/09/18 09:19:29;;;;;;;10.00;3.33;;;;;;;20.91;100.00;97753.56;6109757;19;20006;-74
2023/09/18 09:21:43;;;;;;;5.80;3.20;;;;;;;20.86;100.00;97754.19;6109523;19;20025;-74